Time;durP1;ratioP1;P1;durP2;ratioP2;P2;SDS_P1;SDS_P2;PMS_P1;PMS_P2;Temp;Humidity;BMP_temperature;BMP_pressure;BME280_temperature;BME280_humidity;BME280_pressure;Samples;Min_cycle;Max_cycle;Signal;HPM_P1;HPM_P2
2022/07/22 00:00:38;;;;;;;;;;;;;;;17.43;100.00;99697.78;4953315;28;1895;-68
2022/07/22 00:03:04;;;;;;;;;;;;;;;17.52;100.00;99697.91;4955302;28;913;-67
2022/07/22 00:05:30;;;;;;;;;;;;;;;17.62;100.00;99702.31;4957420;28;823;-68
2022/07/22 00:07:57;;;;;;;;;;;;;;;17.80;100.00;99693.28;4957400;28;831;-68
2022/07/22 00:10:23;;;;;;;;;;;;;;;17.96;100.00;99695.13;4955885;29;1201;-69
2022/07/22 00:12:50;;;;;;;;;;;;;;;18.08;100.00;99688.69;4955780;29;1298;-67
2022/07/22 00:15:17;;;;;;;;;;;;;;;18.19;100.00;99691.09;4957092;28;819;-67
2022/07/22 00:17:43;;;;;;;;;;;;;;;18.27;100.00;99702.78;4956917;28;872;-68
2022/07/22 00:20:10;;;;;;;;;;;;;;;17.99;100.00;99707.41;4956856;28;1887;-67
2022/07/22 00:22:36;;;;;;;;;;;;;;;17.63;100.00;99712.25;4956936;28;858;-68
2022/07/22 00:25:04;;;;;;;;;;;;;;;17.38;100.00;99712.34;4956952;28;835;-68
2022/07/22 00:27:30;;;;;;;;;;;;;;;17.24;100.00;99708.81;4956822;28;884;-68
2022/07/22 00:29:57;;;;;;;;;;;;;;;17.22;100.00;99704.88;4956833;28;839;-68
2022/07/22 00:32:24;;;;;;;;;;;;;;;17.20;100.00;99708.16;4956913;28;923;-68
2022/07/22 00:34:51;;;;;;;;;;;;;;;17.17;100.00;99711.81;4956400;28;1252;-68
2022/07/22 00:37:17;;;;;;;;;;;;;;;17.06;100.00;99705.81;4956696;28;1017;-68
2022/07/22 00:39:44;;;;;;;;;;;;;;;16.91;100.00;99702.72;4956538;28;1915;-69
2022/07/22 00:42:11;;;;;;;;;;;;;;;16.78;100.00;99710.31;4956634;28;878;-68
2022/07/22 00:44:37;;;;;;;;;;;;;;;16.67;100.00;99708.63;4956687;28;832;-68
2022/07/22 00:47:04;;;;;;;;;;;;;;;16.63;100.00;99704.38;4956450;28;909;-67
2022/07/22 00:49:31;;;;;;;;;;;;;;;16.60;100.00;99700.50;4956337;28;902;-68
2022/07/22 00:51:58;;;;;;;;;;;;;;;16.67;99.61;99700.25;4955159;29;1213;-69
2022/07/22 00:54:25;;;;;;;;;;;;;;;16.66;98.77;99695.91;4956321;28;898;-68
2022/07/22 00:56:51;;;;;;;;;;;;;;;16.59;97.77;99701.69;4956337;28;874;-68
2022/07/22 00:59:18;;;;;;;;;;;;;;;16.61;95.61;99692.88;4956386;28;1890;-68
2022/07/22 01:01:44;;;;;;;;;;;;;;;16.68;92.73;99689.88;4956144;28;800;-68
2022/07/22 01:04:11;;;;;;;;;;;;;;;16.76;89.90;99688.41;4956206;28;894;-67
2022/07/22 01:06:37;;;;;;;;;;;;;;;16.83;87.39;99685.41;4956130;28;891;-67
2022/07/22 01:09:04;;;;;;;;;;;;;;;16.70;86.38;99685.41;4956093;28;816;-68
2022/07/22 01:11:31;;;;;;;;;;;;;;;16.57;86.91;99689.44;4956072;28;831;-68
2022/07/22 01:13:58;;;;;;;;;;;;;;;16.48;87.48;99688.09;4955328;28;844;-68
2022/07/22 01:16:24;;;;;;;;;;;;;;;16.35;87.68;99684.50;4955961;28;855;-68
2022/07/22 01:18:51;;;;;;;;;;;;;;;16.25;88.26;99688.41;4955812;28;884;-68
2022/07/22 01:21:17;;;;;;;;;;;;;;;16.17;88.96;99684.25;4955885;28;1894;-69
2022/07/22 01:23:44;;;;;;;;;;;;;;;16.16;90.34;99694.63;4955926;28;879;-67
2022/07/22 01:26:11;;;;;;;;;;;;;;;16.20;92.15;99688.97;4955988;28;858;-68
2022/07/22 01:28:38;;;;;;;;;;;;;;;16.23;93.16;99683.25;4955876;28;879;-68
2022/07/22 01:31:05;;;;;;;;;;;;;;;16.20;93.88;99683.38;4955702;28;799;-67
2022/07/22 01:33:32;;;;;;;;;;;;;;;16.20;94.46;99680.59;4955559;28;1213;-69
2022/07/22 01:35:59;;;;;;;;;;;;;;;16.22;94.54;99684.50;4955704;28;830;-69
2022/07/22 01:38:26;;;;;;;;;;;;;;;16.20;94.85;99684.16;4955595;28;836;-68
2022/07/22 01:40:52;;;;;;;;;;;;;;;16.25;94.80;99680.03;4955482;28;1979;-68
2022/07/22 01:43:20;;;;;;;;;;;;;;;16.30;94.83;99680.28;4955491;28;878;-68
2022/07/22 01:45:49;;;;;;;;;;;;;;;16.35;95.61;99678.94;4955482;28;926;-68
2022/07/22 01:48:16;;;;;;;;;;;;;;;16.38;95.26;99678.03;4955403;28;823;-68
2022/07/22 01:50:43;;;;;;;;;;;;;;;16.39;94.94;99673.25;4955381;28;889;-68
2022/07/22 01:53:09;;;;;;;;;;;;;;;16.40;94.81;99678.38;4954313;29;1270;-68
2022/07/22 01:55:36;;;;;;;;;;;;;;;16.40;94.61;99681.16;4955324;28;851;-68
2022/07/22 01:58:03;;;;;;;;;;;;;;;16.40;94.00;99680.38;4955250;28;894;-69
2022/07/22 02:00:31;;;;;;;;;;;;;;;16.43;93.34;99682.28;4955118;28;1894;-69
2022/07/22 02:02:57;;;;;;;;;;;;;;;16.43;92.88;99680.28;4955088;28;1282;-69
2022/07/22 02:05:24;;;;;;;;;;;;;;;16.46;92.36;99670.22;4955041;28;815;-68
2022/07/22 02:07:51;;;;;;;;;;;;;;;16.53;91.39;99665.19;4955074;28;862;-68
2022/07/22 02:10:18;;;;;;;;;;;;;;;16.61;90.04;99668.56;4954939;28;867;-68
2022/07/22 02:12:45;;;;;;;;;;;;;;;16.70;89.30;99665.09;4954944;28;1208;-68
2022/07/22 02:15:12;;;;;;;;;;;;;;;16.74;88.87;99671.34;4954846;28;930;-69
2022/07/22 02:17:38;;;;;;;;;;;;;;;16.76;88.70;99656.94;4954992;28;835;-69
2022/07/22 02:20:05;;;;;;;;;;;;;;;16.68;88.69;99653.59;4954739;28;1890;-68
2022/07/22 02:22:32;;;;;;;;;;;;;;;16.66;89.36;99656.84;4954747;28;1011;-67
2022/07/22 02:24:58;;;;;;;;;;;;;;;16.68;89.62;99665.53;4954688;28;820;-68
2022/07/22 02:27:26;;;;;;;;;;;;;;;16.53;89.92;99658.84;4953850;28;906;-68
2022/07/22 02:29:53;;;;;;;;;;;;;;;16.30;90.53;99663.53;4954578;28;839;-68
2022/07/22 02:32:19;;;;;;;;;;;;;;;16.14;91.04;99672.00;4954553;28;1043;-68
2022/07/22 02:34:46;;;;;;;;;;;;;;;16.09;91.75;99656.59;4953097;29;1412;-68
2022/07/22 02:37:13;;;;;;;;;;;;;;;16.05;91.75;99661.50;4954539;28;858;-68
2022/07/22 02:39:39;;;;;;;;;;;;;;;16.00;92.02;99659.28;4954428;28;1918;-68
2022/07/22 02:42:06;;;;;;;;;;;;;;;15.99;91.96;99662.50;4954410;28;820;-68
2022/07/22 02:44:32;;;;;;;;;;;;;;;15.99;91.58;99660.47;4954415;28;803;-68
2022/07/22 02:46:59;;;;;;;;;;;;;;;15.96;91.57;99658.59;4954194;28;807;-69
2022/07/22 02:49:25;;;;;;;;;;;;;;;15.92;91.35;99661.47;4954586;28;922;-68
2022/07/22 02:51:51;;;;;;;;;;;;;;;15.93;91.66;99665.81;4954238;28;823;-69
2022/07/22 02:54:17;;;;;;;;;;;;;;;15.89;91.71;99656.00;4954244;28;889;-68
2022/07/22 02:56:43;;;;;;;;;;;;;;;15.88;91.80;99673.94;4954454;28;804;-68
2022/07/22 02:59:10;;;;;;;;;;;;;;;15.85;91.79;99670.03;4954424;28;811;-67
2022/07/22 03:01:37;;;;;;;;;;;;;;;15.83;91.89;99671.69;4954563;28;1950;-68
2022/07/22 03:04:03;;;;;;;;;;;;;;;15.81;91.87;99674.13;4954205;28;918;-69
2022/07/22 03:06:30;;;;;;;;;;;;;;;15.84;91.91;99670.47;4954730;28;803;-69
2022/07/22 03:08:57;;;;;;;;;;;;;;;15.89;91.98;99669.94;4954301;28;808;-69
2022/07/22 03:11:23;;;;;;;;;;;;;;;15.90;91.79;99674.28;4954198;28;847;-69
2022/07/22 03:13:50;;;;;;;;;;;;;;;15.89;91.86;99673.50;4954123;28;840;-68
2022/07/22 03:16:16;;;;;;;;;;;;;;;15.85;91.75;99670.03;4953770;28;831;-68
2022/07/22 03:18:43;;;;;;;;;;;;;;;15.85;91.82;99670.03;4953796;28;897;-68
2022/07/22 03:21:10;;;;;;;;;;;;;;;15.90;91.68;99661.13;4953758;28;1882;-68
2022/07/22 03:23:36;;;;;;;;;;;;;;;15.90;91.33;99663.91;4953798;28;850;-69
2022/07/22 03:26:03;;;;;;;;;;;;;;;15.87;91.62;99664.81;4952434;29;1262;-69
2022/07/22 03:28:29;;;;;;;;;;;;;;;15.85;91.63;99667.25;4953751;28;960;-69
2022/07/22 03:30:56;;;;;;;;;;;;;;;15.88;91.50;99671.16;4953708;28;866;-68
2022/07/22 03:33:22;;;;;;;;;;;;;;;15.90;91.40;99655.56;4953349;28;1439;-67
2022/07/22 03:35:49;;;;;;;;;;;;;;;15.97;91.51;99664.94;4953636;28;839;-68
2022/07/22 03:38:15;;;;;;;;;;;;;;;16.02;91.73;99664.38;4953363;28;867;-68
2022/07/22 03:40:42;;;;;;;;;;;;;;;16.10;92.09;99669.31;4953481;28;1976;-68
2022/07/22 03:43:08;;;;;;;;;;;;;;;16.20;92.30;99672.22;4953563;28;982;-68
2022/07/22 03:45:35;;;;;;;;;;;;;;;16.30;92.76;99666.34;4953359;28;808;-69
2022/07/22 03:48:02;;;;;;;;;;;;;;;16.41;93.04;99666.00;4952217;29;1159;-69
2022/07/22 03:50:29;;;;;;;;;;;;;;;16.50;93.00;99666.09;4953486;28;902;-68
2022/07/22 03:52:54;;;;;;;;;;;;;;;16.60;93.04;99666.19;4953445;28;819;-69
2022/07/22 03:55:21;;;;;;;;;;;;;;;16.66;93.10;99659.63;4953438;28;874;-69
2022/07/22 03:57:47;;;;;;;;;;;;;;;16.76;93.19;99665.31;4951759;28;1444;-69
2022/07/22 04:00:14;;;;;;;;;;;;;;;16.87;92.89;99668.56;4953363;28;1882;-69
2022/07/22 04:02:41;;;;;;;;;;;;;;;16.98;92.79;99666.19;4950657;28;1334;-69
2022/07/22 04:05:07;;;;;;;;;;;;;;;17.09;92.55;99669.41;4953604;28;874;-68
2022/07/22 04:07:34;;;;;;;;;;;;;;;17.20;92.27;99671.03;4953613;28;828;-68
2022/07/22 04:10:07;;;;;;;;;;;;;;;17.31;92.00;99672.25;4953328;28;816;-69
2022/07/22 04:12:34;;;;;;;;;;;;;;;17.45;91.47;99667.38;4953282;28;890;-68
2022/07/22 04:15:02;;;;;;;;;;;;;;;17.57;91.18;99674.94;4951879;29;1186;-69
2022/07/22 04:17:28;;;;;;;;;;;;;;;17.65;90.90;99667.09;4953264;28;858;-69
2022/07/22 04:19:55;;;;;;;;;;;;;;;17.74;90.61;99670.72;4953447;28;1922;-68
2022/07/22 04:22:22;;;;;;;;;;;;;;;17.91;90.01;99664.97;4953203;28;1052;-69
2022/07/22 04:24:49;;;;;;;;;;;;;;;18.07;89.40;99664.78;4953111;28;922;-69
2022/07/22 04:27:17;;;;;;;;;;;;;;;18.25;88.70;99672.47;4951870;29;1449;-68
2022/07/22 04:29:44;;;;;;;;;;;;;;;18.41;87.85;99674.25;4953349;28;796;-68
2022/07/22 04:32:10;;;;;;;;;;;;;;;18.54;87.30;99677.75;4953152;28;921;-68
2022/07/22 04:34:37;;;;;;;;;;;;;;;18.67;86.75;99679.63;4951617;29;1236;-68
2022/07/22 04:37:04;;;;;;;;;;;;;;;18.81;86.17;99678.31;4953050;28;898;-68
2022/07/22 04:39:30;;;;;;;;;;;;;;;18.97;85.47;99678.81;4952980;28;1902;-68
2022/07/22 04:41:57;;;;;;;;;;;;;;;19.17;84.58;99686.78;4953026;28;827;-68
2022/07/22 04:44:24;;;;;;;;;;;;;;;19.37;83.55;99685.56;4951588;29;1319;-68
2022/07/22 04:46:50;;;;;;;;;;;;;;;19.54;82.67;99683.22;4951741;29;1332;-68
2022/07/22 04:49:17;;;;;;;;;;;;;;;19.71;82.02;99687.31;4953512;28;910;-68
2022/07/22 04:51:44;;;;;;;;;;;;;;;19.87;81.20;99691.81;4956469;28;894;-68
2022/07/22 04:54:11;;;;;;;;;;;;;;;20.07;80.35;99687.72;4955106;29;950;-68
2022/07/22 04:56:38;;;;;;;;;;;;;;;20.26;79.45;99683.63;4956364;28;827;-68
2022/07/22 04:59:04;;;;;;;;;;;;;;;20.43;78.62;99686.84;4956334;28;890;-69
2022/07/22 05:01:31;;;;;;;;;;;;;;;20.55;78.12;99685.88;4956220;28;1945;-68
2022/07/22 05:03:57;;;;;;;;;;;;;;;20.69;77.20;99681.63;4956195;28;879;-68
2022/07/22 05:06:24;;;;;;;;;;;;;;;20.77;76.77;99687.69;4956348;28;855;-68
2022/07/22 05:08:51;;;;;;;;;;;;;;;20.86;76.28;99690.44;4956059;28;881;-67
2022/07/22 05:11:18;;;;;;;;;;;;;;;21.00;75.72;99695.34;4956154;28;894;-67
2022/07/22 05:13:44;;;;;;;;;;;;;;;21.19;75.02;99696.00;4956221;28;866;-68
2022/07/22 05:16:11;;;;;;;;;;;;;;;21.36;74.44;99690.75;4956006;28;825;-68
2022/07/22 05:18:38;;;;;;;;;;;;;;;21.62;74.04;99690.25;4956034;28;815;-68
2022/07/22 05:21:04;;;;;;;;;;;;;;;21.88;73.13;99698.16;4955776;28;1882;-68
2022/07/22 05:23:31;;;;;;;;;;;;;;;21.97;72.46;99700.88;4955997;28;834;-67
2022/07/22 05:25:58;;;;;;;;;;;;;;;22.08;72.16;99697.47;4955858;28;1024;-68
2022/07/22 05:28:25;;;;;;;;;;;;;;;22.25;71.93;99700.63;4955800;28;878;-67
2022/07/22 05:30:51;;;;;;;;;;;;;;;22.44;71.34;99696.34;4955790;28;839;-68
2022/07/22 05:33:18;;;;;;;;;;;;;;;22.58;70.48;99695.53;4955605;28;1433;-68
2022/07/22 05:35:44;;;;;;;;;;;;;;;22.77;69.52;99698.91;4955767;28;807;-68
2022/07/22 05:38:11;;;;;;;;;;;;;;;23.08;68.36;99696.78;4955670;28;878;-68
2022/07/22 05:40:37;;;;;;;;;;;;;;;23.42;67.11;99692.34;4955538;28;1989;-68
2022/07/22 05:43:04;;;;;;;;;;;;;;;23.82;65.92;99694.38;4955403;28;1034;-68
2022/07/22 05:45:31;;;;;;;;;;;;;;;24.42;64.23;99703.13;4955543;28;851;-68
2022/07/22 05:47:58;;;;;;;;;;;;;;;24.91;62.17;99700.44;4955379;28;849;-67
2022/07/22 05:50:25;;;;;;;;;;;;;;;25.42;60.91;99700.72;4955443;28;867;-68
2022/07/22 05:52:51;;;;;;;;;;;;;;;26.13;58.50;99691.41;4955350;28;808;-68
2022/07/22 05:55:18;;;;;;;;;;;;;;;27.00;55.33;99684.63;4955318;28;804;-68
2022/07/22 05:57:44;;;;;;;;;;;;;;;28.13;52.36;99689.81;4953989;29;860;-69
2022/07/22 06:00:11;;;;;;;;;;;;;;;29.35;48.92;99688.38;4954936;28;1949;-69
2022/07/22 06:02:38;;;;;;;;;;;;;;;30.46;46.23;99690.16;4955149;28;961;-69
2022/07/22 06:05:04;;;;;;;;;;;;;;;31.37;44.68;99694.97;4955141;28;859;-69
2022/07/22 06:07:31;;;;;;;;;;;;;;;32.20;41.93;99698.59;4955159;28;840;-69
2022/07/22 06:09:58;;;;;;;;;;;;;;;32.65;40.08;99692.56;4954943;28;902;-69
2022/07/22 06:12:25;;;;;;;;;;;;;;;32.61;40.00;99689.28;4955136;28;784;-69
2022/07/22 06:14:51;;;;;;;;;;;;;;;33.02;38.52;99689.75;4954905;28;823;-69
2022/07/22 06:17:18;;;;;;;;;;;;;;;33.24;37.29;99688.34;4954906;28;905;-68
2022/07/22 06:19:44;;;;;;;;;;;;;;;33.28;37.44;99685.91;4954837;28;1957;-68
2022/07/22 06:22:12;;;;;;;;;;;;;;;33.74;36.43;99691.84;4954964;28;895;-70
2022/07/22 06:24:38;;;;;;;;;;;;;;;33.96;36.33;99684.63;4954872;28;874;-69
2022/07/22 06:27:05;;;;;;;;;;;;;;;34.35;35.47;99689.13;4954776;28;855;-69
2022/07/22 06:29:32;;;;;;;;;;;;;;;34.68;34.42;99683.59;4954882;28;815;-69
2022/07/22 06:31:58;;;;;;;;;;;;;;;34.84;34.70;99672.84;4954750;28;1003;-68
2022/07/22 06:34:25;;;;;;;;;;;;;;;35.25;34.22;99682.34;4954551;28;1217;-68
2022/07/22 06:36:52;;;;;;;;;;;;;;;35.27;33.46;99678.88;4954757;28;843;-68
2022/07/22 06:39:19;;;;;;;;;;;;;;;35.64;31.83;99676.47;4953443;29;914;-68
2022/07/22 06:41:46;;;;;;;;;;;;;;;35.22;32.62;99677.75;4954772;28;1973;-69
2022/07/22 06:44:13;;;;;;;;;;;;;;;35.11;32.41;99678.16;4954548;28;1055;-69
2022/07/22 06:46:40;;;;;;;;;;;;;;;35.04;32.77;99673.97;4954885;28;874;-69
2022/07/22 06:49:07;;;;;;;;;;;;;;;35.34;31.96;99672.38;4953327;29;879;-69
2022/07/22 06:51:34;;;;;;;;;;;;;;;35.42;31.18;99661.59;4954755;28;795;-68
2022/07/22 06:54:00;;;;;;;;;;;;;;;35.37;30.60;99657.56;4954361;28;923;-68
2022/07/22 06:56:27;;;;;;;;;;;;;;;35.47;31.38;99652.00;4954965;28;808;-69
2022/07/22 06:58:54;;;;;;;;;;;;;;;35.43;30.63;99665.22;4954163;28;831;-68
2022/07/22 07:01:20;;;;;;;;;;;;;;;35.45;30.67;99662.53;4954383;28;1944;-70
2022/07/22 07:03:47;;;;;;;;;;;;;;;35.96;30.78;99667.84;4954031;28;819;-68
2022/07/22 07:06:14;;;;;;;;;;;;;;;36.54;29.21;99659.16;4954038;28;839;-68
2022/07/22 07:08:41;;;;;;;;;;;;;;;37.21;28.81;99656.78;4952761;29;1199;-69
2022/07/22 07:11:07;;;;;;;;;;;;;;;37.62;28.29;99660.13;4953906;28;799;-68
2022/07/22 07:13:34;;;;;;;;;;;;;;;37.54;27.45;99663.09;4953411;28;827;-68
2022/07/22 07:16:01;;;;;;;;;;;;;;;37.47;28.10;99658.97;4952540;29;1324;-67
2022/07/22 07:18:28;;;;;;;;;;;;;;;37.49;27.58;99667.78;4953874;28;822;-68
2022/07/22 07:20:55;;;;;;;;;;;;;;;38.02;27.14;99661.84;4952408;29;1886;-68
2022/07/22 07:23:22;;;;;;;;;;;;;;;38.04;26.44;99664.94;4953782;28;894;-68
2022/07/22 07:25:49;;;;;;;;;;;;;;;37.99;27.07;99670.34;4953724;28;899;-68
2022/07/22 07:28:16;;;;;;;;;;;;;;;38.43;26.94;99677.41;4952465;29;1205;-68
2022/07/22 07:30:43;;;;;;;;;;;;;;;38.36;26.17;99675.38;4953775;28;831;-69
2022/07/22 07:33:10;;;;;;;;;;;;;;;38.60;25.60;99679.41;4953283;28;1363;-68
2022/07/22 07:35:37;;;;;;;;;;;;;;;38.55;25.98;99681.22;4952367;29;1364;-68
2022/07/22 07:38:04;;;;;;;;;;;;;;;38.66;25.86;99673.38;4953598;28;831;-69
2022/07/22 07:40:32;;;;;;;;;;;;;;;38.66;25.55;99673.38;4953535;28;1914;-68
2022/07/22 07:42:59;;;;;;;;;;;;;;;38.57;25.07;99674.88;4953544;28;803;-69
2022/07/22 07:45:26;;;;;;;;;;;;;;;38.95;25.04;99677.06;4953680;28;823;-69
2022/07/22 07:47:52;;;;;;;;;;;;;;;39.52;24.30;99679.81;4953538;28;881;-68
2022/07/22 07:50:19;;;;;;;;;;;;;;;39.45;24.09;99677.84;4953463;28;866;-68
2022/07/22 07:52:47;;;;;;;;;;;;;;;39.39;24.63;99676.03;4952190;29;1265;-68
2022/07/22 07:55:14;;;;;;;;;;;;;;;39.42;24.51;99679.84;4953428;28;875;-69
2022/07/22 07:57:41;;;;;;;;;;;;;;;39.64;23.70;99683.59;4953459;28;899;-68
2022/07/22 08:00:09;;;;;;;;;;;;;;;39.09;24.05;99682.41;4953234;28;2005;-68
2022/07/22 08:02:36;;;;;;;;;;;;;;;38.95;24.18;99676.31;4953538;28;799;-68
2022/07/22 08:05:04;;;;;;;;;;;;;;;39.11;24.46;99691.97;4953807;28;835;-68
2022/07/22 08:07:30;;;;;;;;;;;;;;;39.50;23.74;99689.13;4953567;28;875;-68
2022/07/22 08:09:57;;;;;;;;;;;;;;;39.30;24.11;99684.69;4952134;29;1186;-68
2022/07/22 08:12:24;;;;;;;;;;;;;;;39.61;23.18;99684.84;4953194;28;850;-68
2022/07/22 08:14:50;;;;;;;;;;;;;;;39.16;23.26;99681.50;4953619;28;807;-68
2022/07/22 08:17:17;;;;;;;;;;;;;;;38.58;23.25;99682.94;4953206;28;785;-68
2022/07/22 08:19:43;;;;;;;;;;;;;;;38.66;23.74;99688.56;4953117;28;1970;-68
2022/07/22 08:22:10;;;;;;;;;;;;;;;38.92;23.90;99681.16;4953204;28;874;-68
2022/07/22 08:24:37;;;;;;;;;;;;;;;39.15;23.61;99682.84;4954396;28;815;-68
2022/07/22 08:27:03;;;;;;;;;;;;;;;39.02;22.32;99686.97;4957096;28;912;-68
2022/07/22 08:29:29;;;;;;;;;;;;;;;38.84;23.00;99682.69;4956929;28;878;-67
2022/07/22 08:31:56;;;;;;;;;;;;;;;38.42;23.20;99678.00;4956750;28;1369;-66
2022/07/22 08:34:23;;;;;;;;;;;;;;;38.05;24.11;99692.44;4956530;28;1268;-66
2022/07/22 08:36:49;;;;;;;;;;;;;;;37.44;25.23;99683.19;4956863;28;859;-68
2022/07/22 08:39:16;;;;;;;;;;;;;;;37.28;25.64;99679.75;4956731;28;803;-68
2022/07/22 08:41:43;;;;;;;;;;;;;;;37.69;25.00;99679.47;4956477;28;1918;-68
2022/07/22 08:44:09;;;;;;;;;;;;;;;37.91;25.18;99687.00;4956629;28;824;-67
2022/07/22 08:46:36;;;;;;;;;;;;;;;37.65;24.54;99693.53;4956538;28;831;-68
2022/07/22 08:49:03;;;;;;;;;;;;;;;37.83;24.85;99689.22;4956522;28;877;-67
2022/07/22 08:51:30;;;;;;;;;;;;;;;37.91;24.82;99687.00;4956438;28;874;-69
2022/07/22 08:53:57;;;;;;;;;;;;;;;38.18;24.54;99689.16;4955195;29;879;-69
2022/07/22 08:56:23;;;;;;;;;;;;;;;38.05;23.71;99690.31;4956396;28;830;-68
2022/07/22 08:58:50;;;;;;;;;;;;;;;37.92;24.31;99691.44;4956414;28;830;-68
2022/07/22 09:01:17;;;;;;;;;;;;;;;37.40;24.33;99685.75;4956242;28;1949;-68
2022/07/22 09:03:55;;;;;;;;;;;;;;;36.86;24.93;99688.44;4956205;28;827;-67
2022/07/22 09:06:24;;;;;;;;;;;;;;;36.77;25.79;99687.00;4954988;29;925;-67
2022/07/22 09:08:55;;;;;;;;;;;;;;;36.92;24.73;99683.22;4956390;28;839;-68
2022/07/22 09:11:23;;;;;;;;;;;;;;;36.47;25.91;99690.91;4956066;28;835;-68
2022/07/22 09:13:50;;;;;;;;;;;;;;;36.05;25.04;99685.81;4956036;28;799;-68
2022/07/22 09:16:37;;;;;;;;;;;;;;;36.08;25.09;99681.75;4956063;28;840;-67
2022/07/22 09:19:04;;;;;;;;;;;;;;;36.47;24.70;99685.16;4955998;28;804;-68
2022/07/22 09:21:31;;;;;;;;;;;;;;;36.56;24.66;99682.34;4955852;28;1974;-68
2022/07/22 09:23:58;;;;;;;;;;;;;;;36.85;23.48;99681.94;4955909;28;878;-68
2022/07/22 09:26:38;;;;;;;;;;;;;;;36.46;24.05;99690.13;4955846;28;903;-67
2022/07/22 09:29:05;;;;;;;;;;;;;;;35.88;24.59;99692.25;4956097;28;866;-67
2022/07/22 09:31:36;;;;;;;;;;;;;;;35.46;25.17;99684.94;4955874;28;886;-67
2022/07/22 09:34:04;;;;;;;;;;;;;;;35.64;25.27;99679.34;4955698;29;1284;-68
2022/07/22 09:36:31;;;;;;;;;;;;;;;35.36;24.31;99679.03;4955189;28;827;-66
2022/07/22 09:39:01;;;;;;;;;;;;;;;35.02;24.54;99685.25;4955561;28;850;-67
2022/07/22 09:41:28;;;;;;;;;;;;;;;34.73;24.02;99679.75;4955523;28;1979;-67
2022/07/22 09:43:54;;;;;;;;;;;;;;;34.45;25.49;99682.81;4955574;28;882;-66
2022/07/22 09:46:37;;;;;;;;;;;;;;;34.44;24.81;99684.13;4955413;28;888;-67
2022/07/22 09:49:09;;;;;;;;;;;;;;;34.34;25.02;99678.22;4955523;28;867;-66
2022/07/22 09:51:36;;;;;;;;;;;;;;;34.12;25.20;99679.75;4955453;28;839;-67
2022/07/22 09:54:02;;;;;;;;;;;;;;;33.86;25.40;99675.06;4955331;28;831;-67
2022/07/22 09:56:30;;;;;;;;;;;;;;;33.67;26.34;99689.72;4955342;29;800;-67
2022/07/22 09:58:57;;;;;;;;;;;;;;;33.57;26.09;99686.59;4955308;28;855;-67
2022/07/22 10:01:24;;;;;;;;;;;;;;;33.79;26.47;99688.03;4955157;28;1894;-68
2022/07/22 10:35:27;;;;;;;;;;;;;;;34.11;25.07;99675.28;4916336;29;1519;-62
2022/07/22 10:37:56;;;;;;;;;;;;;;;34.35;24.92;99669.06;4916425;29;899;-62
2022/07/22 10:40:28;;;;;;;;;;;;;;;34.64;25.46;99680.34;4916292;29;1952;-63
2022/07/22 10:43:00;;;;;;;;;;;;;;;34.71;24.48;99656.59;4916398;29;823;-63
2022/07/22 10:45:45;;;;;;;;;;;;;;;34.61;23.73;99667.13;4916272;29;1248;-62
2022/07/22 10:48:15;;;;;;;;;;;;;;;34.38;23.69;99666.38;4915407;29;1128;-62
2022/07/22 10:50:43;;;;;;;;;;;;;;;34.44;24.21;99664.84;4916418;29;876;-62
2022/07/22 10:53:23;;;;;;;;;;;;;;;34.64;24.20;99660.25;4916212;29;831;-63
2022/07/22 10:59:10;;;;;;;;;;;;;;;34.85;23.10;99660.03;4916152;29;685;-63
2022/07/22 11:01:38;;;;;;;;;;;;;;;34.90;23.26;99661.91;4915881;29;1985;-63
2022/07/22 11:04:09;;;;;;;;;;;;;;;34.78;22.56;99657.91;4915879;29;846;-63
2022/07/22 11:06:54;;;;;;;;;;;;;;;34.97;22.62;99651.75;4915962;29;831;-63
2022/07/22 11:09:23;;;;;;;;;;;;;;;35.02;21.85;99656.53;4914540;29;888;-62
2022/07/22 11:11:52;;;;;;;;;;;;;;;35.26;22.41;99654.38;4915874;29;933;-62
2022/07/22 11:14:26;;;;;;;;;;;;;;;35.69;21.98;99655.34;4916051;29;824;-63
2022/07/22 11:16:54;;;;;;;;;;;;;;;35.99;21.41;99655.16;4915868;29;812;-62
2022/07/22 11:19:31;;;;;;;;;;;;;;;35.80;21.46;99648.38;4915735;29;776;-62
2022/07/22 11:34:13;;;;;;;;;;;;;;;36.86;20.96;99640.25;4926711;29;1284;-63
2022/07/22 11:36:57;;;;;;;;;;;;;;;36.51;20.85;99650.94;4934512;29;832;-62
2022/07/22 11:39:33;;;;;;;;;;;;;;;36.27;21.44;99650.38;4934445;29;949;-62
2022/07/22 11:42:01;;;;;;;;;;;;;;;36.55;20.87;99642.66;4934493;29;1976;-63
2022/07/22 11:44:35;;;;;;;;;;;;;;;36.98;20.78;99647.03;4934537;29;823;-64
2022/07/22 11:47:03;;;;;;;;;;;;;;;36.95;19.61;99645.31;4934336;29;796;-63
2022/07/22 11:49:31;;;;;;;;;;;;;;;36.98;20.28;99644.16;4917288;29;1178;-64
2022/07/22 11:51:57;;;;;;;;;;;;;;;37.51;19.71;99644.09;4933079;29;1170;-63
2022/07/22 11:54:28;;;;;;;;;;;;;;;37.59;19.83;99639.78;4934293;29;800;-63
2022/07/22 12:00:06;;;;;;;;;;;;;;;37.89;19.00;99642.81;4930656;29;1939;-63
2022/07/22 12:02:32;;;;;;;;;;;;;;;38.42;18.90;99646.25;4938110;29;843;-63
2022/07/22 12:04:58;;;;;;;;;;;;;;;38.75;18.43;99635.84;4938160;29;800;-63
2022/07/22 12:07:50;;;;;;;;;;;;;;;38.55;18.36;99634.28;4938064;29;856;-63
2022/07/22 12:10:17;;;;;;;;;;;;;;;38.62;18.36;99629.75;4938080;29;867;-63
2022/07/22 12:12:46;;;;;;;;;;;;;;;39.14;18.02;99633.00;4937994;29;792;-63
2022/07/22 12:15:17;;;;;;;;;;;;;;;39.76;18.05;99623.00;4937945;29;892;-62
2022/07/22 12:17:53;;;;;;;;;;;;;;;39.89;17.63;99624.66;4921089;29;1285;-63
2022/07/22 12:20:24;;;;;;;;;;;;;;;39.59;16.66;99627.59;4937892;29;1890;-63
2022/07/22 12:26:03;;;;;;;;;;;;;;;39.73;16.14;99627.09;4937857;29;614;-63
2022/07/22 12:28:34;;;;;;;;;;;;;;;40.27;15.71;99615.03;4937789;29;791;-63
2022/07/22 12:31:00;;;;;;;;;;;;;;;40.20;15.59;99627.53;4938192;29;882;-63
2022/07/22 12:33:30;;;;;;;;;;;;;;;40.57;16.23;99625.06;4937665;29;1078;-62
2022/07/22 12:36:01;;;;;;;;;;;;;;;40.85;15.61;99618.94;4937754;29;799;-62
2022/07/22 12:38:28;;;;;;;;;;;;;;;40.69;15.25;99613.53;4937684;29;874;-62
2022/07/22 12:40:55;;;;;;;;;;;;;;;41.18;15.58;99613.19;4937478;29;1915;-62
2022/07/22 12:43:26;;;;;;;;;;;;;;;41.04;14.89;99598.50;4937507;29;847;-63
2022/07/22 12:46:02;;;;;;;;;;;;;;;40.95;15.56;99587.72;4937422;29;800;-62
2022/07/22 12:48:31;;;;;;;;;;;;;;;40.58;15.29;99612.09;4937415;29;795;-62
2022/07/22 12:50:58;;;;;;;;;;;;;;;40.64;15.89;99596.53;4937928;29;819;-63
2022/07/22 13:17:47;;;;;;;;;;;;;;;40.79;15.26;99599.75;4859763;29;674;-62
2022/07/22 13:20:18;;;;;;;;;;;;;;;40.19;15.61;99600.75;4859556;29;1951;-63
2022/07/22 13:22:48;;;;;;;;;;;;;;;40.16;15.71;99599.09;4859647;29;856;-63
2022/07/22 13:25:14;;;;;;;;;;;;;;;39.83;15.46;99609.72;4859483;29;896;-63
2022/07/22 13:27:41;;;;;;;;;;;;;;;39.63;15.74;99603.25;4859510;29;899;-63
2022/07/22 13:33:24;;;;;;;;;;;;;;;39.35;15.67;99600.56;4859027;29;1235;-63
2022/07/22 13:35:54;;;;;;;;;;;;;;;39.33;15.82;99605.44;4859615;29;828;-63
2022/07/22 13:38:22;;;;;;;;;;;;;;;39.20;15.71;99598.75;4859313;29;900;-62
2022/07/22 13:40:52;;;;;;;;;;;;;;;39.56;15.78;99594.16;4859211;29;1972;-63
2022/07/22 13:55:30;;;;;;;;;;;;;;;38.86;16.32;99602.72;4936514;29;654;-63
2022/07/22 13:57:57;;;;;;;;;;;;;;;38.32;16.65;99606.56;4919061;29;1190;-64
2022/07/22 14:00:24;;;;;;;;;;;;;;;37.90;17.02;99607.63;4936170;29;1895;-63
2022/07/22 14:02:52;;;;;;;;;;;;;;;38.02;17.35;99604.16;4936037;29;851;-63
2022/07/22 14:05:20;;;;;;;;;;;;;;;38.15;17.18;99606.66;4935982;29;874;-63
2022/07/22 14:07:47;;;;;;;;;;;;;;;38.12;16.95;99611.53;4936031;29;843;-63
2022/07/22 14:10:14;;;;;;;;;;;;;;;38.28;17.22;99605.50;4935833;29;882;-63
2022/07/22 14:12:42;;;;;;;;;;;;;;;38.31;17.12;99604.28;4935912;29;824;-63
2022/07/22 14:15:09;;;;;;;;;;;;;;;38.09;17.12;99604.09;4935962;29;851;-63
2022/07/22 14:17:35;;;;;;;;;;;;;;;37.86;17.68;99601.53;4935871;29;835;-63
2022/07/22 14:20:04;;;;;;;;;;;;;;;37.40;17.77;99608.69;4935683;29;1902;-63
2022/07/22 14:22:31;;;;;;;;;;;;;;;37.01;17.90;99604.75;4935663;29;862;-63
2022/07/22 14:27:59;;;;;;;;;;;;;;;36.22;19.30;99607.47;4935582;29;642;-63
2022/07/22 14:30:28;;;;;;;;;;;;;;;36.13;19.47;99606.03;4935533;29;893;-63
2022/07/22 14:32:55;;;;;;;;;;;;;;;35.93;20.05;99610.72;4918263;29;1347;-63
2022/07/22 14:35:22;;;;;;;;;;;;;;;35.94;19.77;99604.41;4918406;29;1234;-62
2022/07/22 14:37:49;;;;;;;;;;;;;;;36.02;19.96;99606.44;4935351;29;906;-62
2022/07/22 14:40:16;;;;;;;;;;;;;;;35.74;20.20;99602.63;4935285;29;1919;-62